Time;durP1;ratioP1;P1;durP2;ratioP2;P2;SDS_P1;SDS_P2;PMS_P1;PMS_P2;Temp;Humidity;BMP_temperature;BMP_pressure;BME280_temperature;BME280_humidity;BME280_pressure;Samples;Min_cycle;Max_cycle;Signal;HPM_P1;HPM_P2
2022/01/02 11:10:55;;;;;;;;;10.67;7.67;;;;;16.47;54.25;101423.88;5107702;27;45504;-69
2022/01/02 11:13:21;;;;;;;;;7.00;5.33;;;;;16.15;55.60;101391.63;5091013;27;45429;-71
2022/01/02 11:15:47;;;;;;;;;6.00;6.00;;;;;16.29;55.26;101427.56;5082954;27;45404;-70
2022/01/02 11:18:14;;;;;;;;;7.00;6.33;;;;;16.23;55.68;101424.09;5073116;27;45374;-69
2022/01/02 11:20:41;;;;;;;;;7.00;5.00;;;;;16.10;55.92;101410.16;5081562;27;45445;-69
2022/01/02 11:23:27;;;;;;;;;10.33;6.00;;;;;16.15;56.29;101434.78;5095001;27;45566;-68
2022/01/02 11:26:12;;;;;;;;;6.67;6.67;;;;;16.10;56.34;101420.72;5093974;27;45415;-67
2022/01/02 11:28:45;;;;;;;;;8.33;5.00;;;;;15.97;56.66;101430.56;5091177;27;45657;-68
2022/01/02 11:31:25;;;;;;;;;4.67;4.67;;;;;15.88;57.41;101428.00;5078371;27;46059;-69
2022/01/02 11:33:51;;;;;;;;;5.00;3.67;;;;;15.79;57.96;101436.00;5087433;27;45498;-69
2022/01/02 11:36:34;;;;;;;;;11.67;9.67;;;;;15.67;57.90;101413.16;5090127;27;45445;-68
2022/01/02 11:39:07;;;;;;;;;4.67;4.33;;;;;15.76;58.39;101425.47;5091336;27;45571;-69
2022/01/02 11:41:45;;;;;;;;;8.67;6.33;;;;;15.77;58.55;101429.84;5089959;27;46337;-67
2022/01/02 11:44:16;;;;;;;;;9.67;8.00;;;;;15.72;58.59;101416.66;5097498;27;45456;-68
2022/01/02 11:46:58;;;;;;;;;9.00;6.67;;;;;15.72;58.70;101426.38;5085569;27;45267;-70
2022/01/02 11:49:50;;;;;;;;;6.33;5.00;;;;;15.51;59.57;101415.03;5088066;27;45550;-67
2022/01/02 11:52:23;;;;;;;;;8.67;8.67;;;;;15.47;60.06;101411.56;5087776;27;46217;-70
2022/01/02 11:54:51;;;;;;;;;10.33;8.67;;;;;15.41;60.27;101408.97;5093916;27;45218;-66
2022/01/02 11:57:20;;;;;;;;;11.00;7.67;;;;;15.51;59.95;101415.03;5089504;27;45331;-67
2022/01/02 11:59:46;;;;;;;;;13.00;8.00;;;;;15.49;60.32;101424.72;5074094;27;45636;-68
2022/01/02 12:02:26;;;;;;;;;8.33;6.33;;;;;15.38;60.26;101409.00;5075740;27;45522;-67
2022/01/02 12:05:31;;;;;;;;;10.33;8.67;;;;;15.27;61.16;101416.09;5092679;27;45508;-70
2022/01/02 12:07:52;;;;;;;;;6.33;6.00;;;;;14.91;61.81;101394.31;5091943;27;45460;-71
2022/01/02 12:10:18;;;;;;;;;7.33;7.33;;;;;15.00;62.34;101411.88;5092090;27;45277;-70
2022/01/02 12:13:13;;;;;;;;;3.00;1.67;;;;;14.83;62.64;101411.97;5089542;27;45884;-71
2022/01/02 12:15:38;;;;;;;;;10.33;6.33;;;;;14.76;63.40;101419.03;5074249;27;45426;-68
2022/01/02 12:18:16;;;;;;;;;15.00;12.67;;;;;14.79;63.75;101407.59;5091206;27;45437;-71
2022/01/02 12:20:54;;;;;;;;;9.67;8.67;;;;;14.85;63.56;101410.16;5081944;27;45393;-68
2022/01/02 12:23:31;;;;;;;;;6.00;6.00;;;;;14.84;63.74;101403.16;5060581;28;45506;-70
2022/01/02 12:26:02;;;;;;;;;8.33;6.67;;;;;14.83;64.59;101402.28;5076609;27;45699;-70
2022/01/02 12:28:29;;;;;;;;;10.33;8.00;;;;;14.65;64.13;101383.91;5056844;28;45442;-69
2022/01/02 12:30:56;;;;;;;;;6.33;5.00;;;;;14.81;64.11;101388.22;5060483;28;45460;-70
2022/01/02 12:33:27;;;;;;;;;7.67;5.67;;;;;14.92;63.94;101384.66;5070174;28;45548;-71
2022/01/02 12:35:53;;;;;;;;;9.33;5.33;;;;;14.87;63.54;101391.72;5072542;28;45567;-72
2022/01/02 12:38:19;;;;;;;;;7.33;6.00;;;;;14.66;63.87;101372.47;5056231;28;45509;-72
2022/01/02 12:40:47;;;;;;;;;9.00;8.00;;;;;14.51;64.72;101339.13;5067153;27;45651;-68
2022/01/02 12:43:13;;;;;;;;;5.67;5.67;;;;;14.73;64.58;101375.94;5055954;28;46056;-70
2022/01/02 12:45:39;;;;;;;;;7.33;6.00;;;;;14.71;64.49;101372.44;5055458;28;45358;-70
2022/01/02 12:48:05;;;;;;;;;7.67;7.00;;;;;14.63;64.43;101352.25;5072408;28;45358;-69
2022/01/02 12:50:33;;;;;;;;;8.33;7.00;;;;;14.62;64.52;101365.47;5060249;28;45237;-71
2022/01/02 12:52:59;;;;;;;;;9.33;7.67;;;;;14.63;64.96;101361.94;5076665;27;45468;-72
2022/01/02 12:55:26;;;;;;;;;6.00;4.33;;;;;14.56;64.82;101353.19;5066742;28;45829;-70
2022/01/02 12:58:07;;;;;;;;;5.00;5.00;;;;;14.57;65.38;101351.44;5088873;27;45653;-71
2022/01/02 13:00:33;;;;;;;;;8.33;8.00;;;;;14.53;65.14;101347.91;5058309;28;45925;-67
2022/01/02 13:02:59;;;;;;;;;8.00;6.33;;;;;14.51;65.11;101331.22;5068895;28;45644;-70
2022/01/02 13:05:24;;;;;;;;;8.67;6.67;;;;;14.40;65.81;101348.81;5069777;28;45473;-71
2022/01/02 13:08:02;;;;;;;;;7.67;5.33;;;;;14.41;65.92;101354.09;5070364;28;45454;-71
2022/01/02 13:10:28;;;;;;;;;11.67;7.33;;;;;14.40;65.71;101346.19;5056212;28;45849;-71
2022/01/02 13:12:53;;;;;;;;;6.33;5.00;;;;;14.29;65.82;101337.47;5070971;28;45357;-71
2022/01/02 13:15:19;;;;;;;;;7.67;4.67;;;;;14.45;66.01;101347.06;5073151;27;45483;-69
2022/01/02 13:17:57;;;;;;;;;4.33;4.33;;;;;14.61;65.71;101338.22;5073601;28;45554;-71
2022/01/02 13:20:33;;;;;;;;;5.33;5.00;;;;;14.69;64.99;101332.03;5074862;28;45454;-69
2022/01/02 13:22:59;;;;;;;;;5.67;5.67;;;;;14.71;65.19;101323.25;5075293;27;45948;-71
2022/01/02 13:25:28;;;;;;;;;6.33;6.33;;;;;14.82;64.55;101333.72;5071602;27;45559;-71
2022/01/02 13:28:03;;;;;;;;;8.67;4.67;;;;;14.82;64.71;101329.31;5069966;27;45492;-71
2022/01/02 13:30:38;;;;;;;;;10.33;5.00;;;;;14.62;64.72;101305.72;5072688;27;45481;-69
2022/01/02 13:33:26;;;;;;;;;8.33;5.67;;;;;14.87;64.95;101347.75;5069041;28;46041;-68
2022/01/02 13:35:54;;;;;;;;;4.67;4.67;;;;;14.93;64.26;101336.31;5075394;28;45438;-72
2022/01/02 13:38:20;;;;;;;;;5.67;5.00;;;;;14.74;64.85;101317.94;5072923;27;45346;-72
2022/01/02 13:40:47;;;;;;;;;8.00;5.00;;;;;14.84;64.54;101324.03;5070521;27;45399;-69
2022/01/02 13:43:18;;;;;;;;;4.67;4.00;;;;;14.89;64.27;101301.16;5074599;28;45344;-72
2022/01/02 13:45:46;;;;;;;;;5.00;4.00;;;;;15.08;64.21;101320.34;5074014;27;45507;-69
2022/01/02 13:48:27;;;;;;;;;6.00;4.67;;;;;15.19;64.09;101329.06;5077592;27;45492;-71
2022/01/02 13:50:59;;;;;;;;;4.67;4.67;;;;;15.23;63.70;101338.72;5075070;28;45540;-71
2022/01/02 13:53:32;;;;;;;;;7.00;4.33;;;;;15.26;63.82;101338.69;5073912;27;46075;-69
2022/01/02 13:56:04;;;;;;;;;3.67;2.33;;;;;15.22;63.67;101322.91;5072812;27;45386;-70
2022/01/02 13:58:31;;;;;;;;;4.33;3.67;;;;;15.18;64.22;101323.78;5071451;27;45579;-72
2022/01/02 14:00:58;;;;;;;;;7.33;4.00;;;;;15.28;63.63;101346.63;5069967;28;45406;-70
2022/01/02 14:03:30;;;;;;;;;9.00;4.00;;;;;15.25;63.97;101347.47;5078293;27;45317;-70
2022/01/02 14:05:57;;;;;;;;;10.33;4.33;;;;;15.30;63.72;101349.22;5069825;27;46178;-72
2022/01/02 14:08:22;;;;;;;;;5.00;3.00;;;;;15.29;63.17;101334.28;5073853;28;45381;-71
2022/01/02 14:11:10;;;;;;;;;3.67;3.00;;;;;15.44;63.23;101355.25;5069031;27;45571;-70
2022/01/02 14:19:26;;;;;;;;;4.00;4.00;;;;;15.35;63.25;101340.41;5059759;28;45441;-72
2022/01/02 14:21:52;;;;;;;;;6.00;4.00;;;;;15.30;63.82;101331.59;5051695;28;45733;-72
2022/01/02 14:24:17;;;;;;;;;3.00;3.00;;;;;15.43;63.45;101335.03;5053110;28;45910;-69
2022/01/02 14:26:43;;;;;;;;;4.33;4.00;;;;;15.37;63.31;101343.88;5042091;28;45613;-69
2022/01/02 14:29:09;;;;;;;;;5.00;4.33;;;;;15.30;63.01;101325.47;5034512;28;45394;-70
2022/01/02 14:31:34;;;;;;;;;4.00;2.33;;;;;15.27;63.08;101299.97;5036878;28;45323;-72
2022/01/02 14:34:01;;;;;;;;;3.00;3.00;;;;;15.38;62.96;101323.66;5034196;28;45395;-69
2022/01/02 14:36:28;;;;;;;;;5.00;4.00;;;;;15.42;62.79;101322.72;5032298;28;45537;-70
2022/01/02 14:38:54;;;;;;;;;3.00;1.67;;;;;15.34;63.17;101314.88;5036767;28;45736;-70
2022/01/02 14:41:20;;;;;;;;;7.67;2.00;;;;;15.30;63.30;101317.53;5035642;28;45471;-70
2022/01/02 14:43:50;;;;;;;;;5.00;2.00;;;;;15.39;63.24;101314.84;5034439;28;45468;-68
2022/01/02 14:46:16;;;;;;;;;3.33;2.00;;;;;15.30;62.85;101299.94;5056362;28;45441;-69
2022/01/02 14:48:42;;;;;;;;;2.00;2.00;;;;;15.25;63.42;101317.59;5058319;28;45399;-70
2022/01/02 14:51:08;;;;;;;;;5.00;3.00;;;;;15.30;63.28;101341.28;5047436;28;45487;-71
2022/01/02 14:53:36;;;;;;;;;4.33;2.00;;;;;15.29;62.91;101342.19;5044183;28;45353;-71
2022/01/02 14:56:04;;;;;;;;;4.00;2.00;;;;;15.27;62.78;101339.56;5029942;28;45977;-69
2022/01/02 14:58:30;;;;;;;;;4.00;1.67;;;;;15.25;63.18;101315.81;5034315;28;45351;-70
2022/01/02 15:00:57;;;;;;;;;5.00;2.00;;;;;15.27;63.05;101331.66;5039232;28;45311;-69
2022/01/02 15:03:23;;;;;;;;;3.00;3.00;;;;;15.21;63.10;101343.13;5034902;28;45816;-66
2022/01/02 15:05:48;;;;;;;;;4.00;2.00;;;;;15.06;63.45;101320.34;5049042;28;45479;-70
2022/01/02 15:08:14;;;;;;;;;6.33;2.00;;;;;15.12;63.49;101332.66;5053791;28;45596;-71
2022/01/02 15:10:40;;;;;;;;;4.50;3.00;;;;;15.05;63.65;101336.22;5067368;28;45440;-68
2022/01/02 15:13:08;;;;;;;;;3.00;2.33;;;;;15.01;64.19;101335.34;5068691;27;46763;-70
2022/01/02 15:15:34;;;;;;;;;2.33;1.00;;;;;14.95;64.33;101334.50;5053733;28;45424;-68
2022/01/02 15:17:59;;;;;;;;;3.00;2.00;;;;;14.97;63.98;101338.00;5052250;28;45492;-69
2022/01/02 15:20:25;;;;;;;;;4.67;3.67;;;;;14.72;64.14;101295.97;5053723;28;45481;-68
2022/01/02 15:22:51;;;;;;;;;4.00;2.00;;;;;14.95;63.74;101324.84;5053358;28;46417;-68
2022/01/02 15:25:19;;;;;;;;;4.33;2.00;;;;;14.87;63.97;101308.19;5070360;28;45479;-70
2022/01/02 15:27:45;;;;;;;;;3.00;2.00;;;;;14.89;64.15;101318.75;5078132;28;45388;-71
2022/01/02 15:30:11;;;;;;;;;3.00;3.00;;;;;14.87;64.35;101325.78;5074475;27;45361;-71
2022/01/02 15:32:37;;;;;;;;;2.00;2.00;;;;;14.75;64.15;101316.19;5064124;28;45502;-70
2022/01/02 15:35:07;;;;;;;;;2.00;2.00;;;;;14.80;64.08;101304.69;5053458;28;45548;-69
2022/01/02 15:37:34;;;;;;;;;3.00;3.00;;;;;14.69;64.37;101296.00;5052499;28;45497;-69
2022/01/02 15:40:00;;;;;;;;;1.00;0.00;;;;;14.71;64.43;101317.06;5053701;28;45651;-70
2022/01/02 15:42:25;;;;;;;;;5.67;2.67;;;;;14.70;64.60;101312.69;5052919;28;46068;-71
2022/01/02 15:44:51;;;;;;;;;3.00;2.67;;;;;14.61;64.65;101306.56;5052995;28;45450;-71
2022/01/02 15:47:16;;;;;;;;;3.00;2.00;;;;;14.60;65.04;101301.34;5084016;27;45439;-70
2022/01/02 15:49:42;;;;;;;;;3.33;3.00;;;;;14.50;64.85;101283.75;5053217;28;45440;-72
2022/01/02 15:52:08;;;;;;;;;2.67;1.00;;;;;14.61;64.99;101295.16;5068005;28;46783;-71
2022/01/02 15:54:36;;;;;;;;;1.33;1.00;;;;;14.59;65.03;101299.56;5065590;28;45540;-70
2022/01/02 15:57:02;;;;;;;;;5.33;2.33;;;;;14.59;65.11;101303.09;5074585;27;45601;-72
2022/01/02 15:59:27;;;;;;;;;8.00;2.00;;;;;14.55;65.16;101300.50;5079066;28;45298;-70
2022/01/02 16:01:53;;;;;;;;;3.00;3.00;;;;;14.50;65.18;101281.13;5077719;28;45611;-70
2022/01/02 16:04:19;;;;;;;;;4.00;3.00;;;;;14.50;65.14;101283.75;5061417;28;45495;-69
2022/01/02 16:06:44;;;;;;;;;6.00;1.00;;;;;14.59;64.86;101302.19;5069650;28;45816;-67
2022/01/02 16:09:10;;;;;;;;;2.00;2.00;;;;;14.46;65.87;101292.59;5075994;28;45835;-69
2022/01/02 16:11:36;;;;;;;;;2.33;2.33;;;;;14.46;66.11;101326.84;5063222;28;46181;-70
2022/01/02 16:14:05;;;;;;;;;2.67;2.33;;;;;14.51;65.67;101315.38;5055948;28;45426;-72
2022/01/02 16:16:35;;;;;;;;;3.33;2.00;;;;;14.40;66.32;101306.66;5059525;28;45367;-67
2022/01/02 16:19:01;;;;;;;;;3.00;2.00;;;;;14.37;66.02;101304.91;5066862;28;45713;-71
2022/01/02 16:21:27;;;;;;;;;3.00;3.00;;;;;14.41;66.20;101305.78;5075920;27;46541;-70
2022/01/02 16:23:54;;;;;;;;;1.67;1.67;;;;;14.39;66.01;101320.72;5075986;27;45558;-70
2022/01/02 16:26:20;;;;;;;;;3.33;2.00;;;;;14.32;65.91;101316.38;5074719;27;45505;-69
2022/01/02 16:28:47;;;;;;;;;2.67;2.00;;;;;14.35;66.43;101327.75;5075683;28;45507;-71
2022/01/02 16:31:15;;;;;;;;;4.00;2.00;;;;;14.41;66.00;101338.28;5093444;27;47856;-70
2022/01/02 16:33:41;;;;;;;;;3.67;2.33;;;;;14.25;66.33;101322.53;5080616;27;45309;-72
2022/01/02 16:36:09;;;;;;;;;3.00;1.33;;;;;14.30;66.15;101307.59;5069702;28;45748;-72
2022/01/02 16:38:35;;;;;;;;;2.00;1.67;;;;;14.47;65.95;101341.78;5088504;27;45576;-70
2022/01/02 16:41:01;;;;;;;;;4.00;2.67;;;;;14.41;66.44;101340.03;5115877;27;47529;-69
2022/01/02 16:43:27;;;;;;;;;4.00;1.00;;;;;14.35;66.69;101334.78;5079840;28;45258;-70
2022/01/02 16:45:53;;;;;;;;;4.00;2.00;;;;;14.34;66.57;101322.50;5077833;27;45487;-70
2022/01/02 16:48:19;;;;;;;;;6.33;4.00;;;;;14.36;66.42;101329.53;5075917;27;45274;-71
2022/01/02 16:50:44;;;;;;;;;4.00;2.00;;;;;14.28;66.43;101309.34;5075695;27;45386;-69
2022/01/02 16:53:11;;;;;;;;;3.00;3.00;;;;;14.16;66.80;101310.28;5076150;27;45867;-71
2022/01/02 16:55:37;;;;;;;;;4.00;2.00;;;;;14.31;67.04;101339.22;5098612;27;45929;-68
2022/01/02 16:58:04;;;;;;;;;6.33;4.00;;;;;14.32;67.03;101308.47;5098645;27;45407;-68
2022/01/02 17:00:30;;;;;;;;;4.00;2.00;;;;;14.32;66.90;101311.09;5112595;27;47889;-66
2022/01/02 17:02:58;;;;;;;;;5.00;4.00;;;;;14.31;66.97;101322.53;5100031;27;45383;-70
2022/01/02 17:05:26;;;;;;;;;6.67;3.33;;;;;14.24;67.61;101324.31;5100282;27;45471;-66
2022/01/02 17:07:51;;;;;;;;;2.67;1.00;;;;;13.85;67.70;101262.97;5096327;27;45447;-67
2022/01/02 17:10:17;;;;;;;;;3.33;3.33;;;;;14.17;67.44;101315.53;5095793;27;46083;-67
2022/01/02 17:12:43;;;;;;;;;5.00;2.00;;;;;14.10;67.43;101307.69;5095749;27;45431;-67
2022/01/02 17:15:12;;;;;;;;;4.00;4.00;;;;;14.14;67.70;101306.75;5096212;27;45369;-66
2022/01/02 17:17:39;;;;;;;;;7.00;4.00;;;;;14.09;67.48;101288.34;5095830;27;45363;-67
2022/01/02 17:20:07;;;;;;;;;6.67;3.00;;;;;14.10;67.99;101292.75;5064996;27;45536;-69
2022/01/02 17:22:32;;;;;;;;;9.00;5.00;;;;;14.07;67.95;101284.84;5068157;28;45542;-71
2022/01/02 17:24:58;;;;;;;;;3.00;3.00;;;;;14.10;67.67;101279.56;5054320;28;45539;-68
2022/01/02 17:27:25;;;;;;;;;4.33;3.33;;;;;14.20;67.22;101291.81;5055950;28;45393;-68
2022/01/02 17:29:51;;;;;;;;;4.33;3.00;;;;;14.16;67.25;101292.69;5058138;28;45374;-69
2022/01/02 17:32:17;;;;;;;;;2.33;2.33;;;;;14.14;67.54;101290.97;5058244;28;45444;-69
2022/01/02 17:34:43;;;;;;;;;3.00;3.00;;;;;14.14;66.90;101283.94;5055376;28;45462;-69
2022/01/02 17:37:08;;;;;;;;;7.00;4.00;;;;;14.12;66.96;101295.38;5056722;28;45453;-68
2022/01/02 17:39:37;;;;;;;;;3.67;3.67;;;;;14.10;66.92;101310.31;5059310;28;46271;-71
2022/01/02 17:42:04;;;;;;;;;4.00;4.00;;;;;14.17;66.89;101306.78;5074843;27;45664;-68
2022/01/02 17:44:32;;;;;;;;;2.00;2.00;;;;;14.20;66.38;101304.13;5059215;28;45471;-69
2022/01/02 17:46:58;;;;;;;;;5.00;5.00;;;;;14.23;66.44;101290.06;5057863;28;45546;-69
2022/01/02 17:49:25;;;;;;;;;3.67;2.67;;;;;14.19;66.38;101299.75;5057883;28;46044;-70
2022/01/02 17:51:51;;;;;;;;;2.33;2.33;;;;;14.23;66.12;101314.63;5053885;28;45452;-69
2022/01/02 17:54:17;;;;;;;;;3.33;3.00;;;;;14.25;65.79;101298.84;5054985;28;45304;-70
2022/01/02 17:56:43;;;;;;;;;3.33;3.00;;;;;14.17;65.65;101315.53;5057541;28;45414;-68
2022/01/02 17:59:12;;;;;;;;;4.67;3.00;;;;;14.11;65.75;101319.94;5055003;28;45609;-71
2022/01/02 18:01:37;;;;;;;;;3.00;2.00;;;;;14.10;65.73;101318.22;5070059;28;45476;-69
2022/01/02 18:04:04;;;;;;;;;2.00;2.00;;;;;14.04;65.29;101315.59;5052893;28;45818;-70
2022/01/02 18:06:30;;;;;;;;;3.00;2.67;;;;;14.14;65.67;101323.47;5057011;28;45353;-70
2022/01/02 18:09:07;;;;;;;;;5.00;2.00;;;;;13.95;65.21;101263.81;5055489;28;45488;-71
2022/01/02 18:11:34;;;;;;;;;3.00;2.33;;;;;14.18;65.63;101313.78;5054990;28;45384;-69
2022/01/02 18:14:00;;;;;;;;;3.67;3.00;;;;;14.24;65.11;101318.13;5057383;28;45501;-68
2022/01/02 18:16:25;;;;;;;;;3.67;3.00;;;;;14.17;65.32;101312.03;5055128;28;45682;-68
2022/01/02 18:18:52;;;;;;;;;3.33;2.00;;;;;14.31;65.17;101320.78;5054378;28;45553;-68
2022/01/02 18:21:21;;;;;;;;;2.00;2.00;;;;;14.08;65.30;101285.72;5058612;28;45472;-68
2022/01/02 18:23:54;;;;;;;;;4.33;2.33;;;;;14.24;65.00;101318.13;5057154;28;45544;-68
2022/01/02 18:26:21;;;;;;;;;6.33;3.67;;;;;14.23;64.85;101317.28;5058737;28;45449;-69
2022/01/02 18:28:51;;;;;;;;;2.00;2.00;;;;;14.23;65.06;101332.22;5058333;28;46539;-68
2022/01/02 18:31:21;;;;;;;;;5.67;3.00;;;;;13.67;64.98;101247.25;5058671;28;45438;-68
2022/01/02 18:33:47;;;;;;;;;4.00;2.00;;;;;13.98;65.21;101313.84;5058987;28;45627;-70
2022/01/02 18:36:13;;;;;;;;;2.33;2.33;;;;;14.26;64.94;101353.25;5074077;27;45393;-69
2022/01/02 18:38:39;;;;;;;;;6.00;2.33;;;;;14.10;64.70;101316.44;5099263;27;45466;-71
2022/01/02 18:41:06;;;;;;;;;3.67;3.67;;;;;13.77;64.92;101259.50;5093527;27;45543;-70
2022/01/02 18:43:35;;;;;;;;;3.67;1.00;;;;;14.08;65.08;101318.22;5097943;27;45362;-71
2022/01/02 18:46:02;;;;;;;;;3.67;2.00;;;;;14.03;64.69;101298.03;5093604;27;45558;-68
2022/01/02 18:48:29;;;;;;;;;4.33;2.00;;;;;14.24;64.81;101348.03;5110286;27;48169;-70
2022/01/02 18:50:56;;;;;;;;;4.00;3.67;;;;;14.27;64.93;101355.03;5094628;27;45525;-70
2022/01/02 18:53:22;;;;;;;;;2.33;2.00;;;;;14.23;64.42;101346.25;5084473;27;45526;-69
2022/01/02 18:55:48;;;;;;;;;1.67;0.00;;;;;14.17;64.65;101336.63;5095826;27;45815;-69
2022/01/02 18:58:14;;;;;;;;;4.00;1.00;;;;;14.18;64.40;101326.94;5080796;27;45995;-69
2022/01/02 19:00:40;;;;;;;;;4.00;2.33;;;;;14.19;64.30;101350.66;5077768;27;45474;-69
2022/01/02 19:03:08;;;;;;;;;2.00;2.00;;;;;14.22;64.36;101347.16;5099004;27;45278;-68
2022/01/02 19:05:34;;;;;;;;;3.00;2.00;;;;;14.25;63.91;101362.06;5095705;27;45688;-69
2022/01/02 19:08:00;;;;;;;;;3.00;1.00;;;;;14.26;64.48;101366.44;5094574;27;46264;-70
2022/01/02 19:10:26;;;;;;;;;9.67;3.33;;;;;14.21;64.00;101350.66;5097443;27;45770;-70
2022/01/02 19:12:58;;;;;;;;;7.67;3.33;;;;;14.11;64.26;101343.66;5093218;27;45542;-68
2022/01/02 19:15:24;;;;;;;;;2.67;2.33;;;;;14.24;64.29;101362.94;5072851;27;45612;-69
2022/01/02 19:17:49;;;;;;;;;6.67;3.00;;;;;14.24;63.49;101373.47;5073023;27;46047;-70
2022/01/02 19:20:15;;;;;;;;;2.33;2.00;;;;;14.27;63.26;101376.97;5077049;27;45739;-67
2022/01/02 19:22:47;;;;;;;;;4.67;3.00;;;;;14.21;63.52;101377.88;5077727;27;45792;-70
2022/01/02 19:25:14;;;;;;;;;2.67;1.67;;;;;14.21;63.51;101384.91;5078083;27;45547;-69
2022/01/02 19:27:40;;;;;;;;;3.33;3.00;;;;;14.25;63.63;101393.69;5075823;27;45603;-69
2022/01/02 19:30:06;;;;;;;;;4.33;3.00;;;;;14.22;63.55;101397.19;5073310;27;45905;-69
2022/01/02 19:32:32;;;;;;;;;7.33;4.00;;;;;14.09;63.62;101384.94;5077152;27;45706;-70
2022/01/02 19:34:57;;;;;;;;;8.33;5.00;;;;;14.13;63.44;101394.59;5076843;27;45298;-69
2022/01/02 19:37:26;;;;;;;;;2.00;2.00;;;;;14.19;63.26;101394.59;5076725;27;46316;-68
2022/01/02 19:39:52;;;;;;;;;4.33;2.00;;;;;14.20;63.73;101407.72;5062500;27;45425;-67
2022/01/02 19:42:20;;;;;;;;;1.67;1.33;;;;;14.09;63.49;101388.44;5058729;28;45472;-68
2022/01/02 19:44:52;;;;;;;;;2.00;2.00;;;;;14.16;63.58;101394.56;5089015;27;45566;-75
2022/01/02 19:47:17;;;;;;;;;6.67;2.00;;;;;14.17;63.32;101402.47;5055873;28;46568;-71
2022/01/02 19:49:45;;;;;;;;;2.33;2.33;;;;;14.16;63.18;101398.06;5058609;28;45554;-71
2022/01/02 19:52:11;;;;;;;;;2.67;1.67;;;;;14.20;63.00;101398.97;5056776;28;45644;-68
2022/01/02 19:54:38;;;;;;;;;3.00;1.00;;;;;14.18;63.47;101393.69;5056797;28;45477;-68
2022/01/02 19:57:04;;;;;;;;;4.67;2.33;;;;;14.18;63.60;101400.72;5055847;28;46233;-71
2022/01/02 19:59:30;;;;;;;;;7.33;2.67;;;;;14.17;63.21;101396.34;5058616;28;45470;-70
2022/01/02 20:01:56;;;;;;;;;2.00;2.00;;;;;14.16;63.46;101400.72;5057289;28;45331;-71
2022/01/02 20:04:22;;;;;;;;;3.00;3.00;;;;;14.01;63.47;101369.16;5072848;28;45602;-70
2022/01/02 20:06:52;;;;;;;;;3.33;2.00;;;;;14.12;63.26;101395.47;5060771;28;45998;-70
2022/01/02 20:09:22;;;;;;;;;4.00;2.00;;;;;14.08;63.46;101405.13;5060674;28;45421;-70
2022/01/02 20:11:48;;;;;;;;;3.00;3.00;;;;;13.93;63.26;101369.16;5064224;27;45458;-68
2022/01/02 20:14:13;;;;;;;;;2.67;2.00;;;;;13.92;63.57;101375.31;5072775;27;45508;-70
2022/01/02 20:16:40;;;;;;;;;2.00;1.00;;;;;14.11;63.12;101399.84;5068363;28;45462;-71
2022/01/02 20:19:06;;;;;;;;;5.00;2.33;;;;;14.11;63.43;101415.66;5076600;28;45488;-70
2022/01/02 20:21:32;;;;;;;;;4.00;3.00;;;;;14.09;63.41;101398.09;5059791;28;45477;-71
2022/01/02 20:23:58;;;;;;;;;4.67;2.00;;;;;14.07;63.16;101399.84;5058708;28;45704;-71
2022/01/02 20:26:24;;;;;;;;;2.33;2.33;;;;;14.00;63.02;101388.47;5056288;28;45549;-72
2022/01/02 20:28:51;;;;;;;;;6.67;2.00;;;;;14.13;62.86;101413.91;5056976;28;45306;-71
2022/01/02 20:31:17;;;;;;;;;4.00;2.67;;;;;14.10;63.36;101424.44;5060330;28;45424;-70
2022/01/02 20:33:49;;;;;;;;;4.00;3.67;;;;;14.04;63.04;101418.31;5057874;28;45543;-69
2022/01/02 20:36:16;;;;;;;;;5.33;2.00;;;;;14.10;63.20;101437.63;5058510;28;45764;-70
2022/01/02 20:38:46;;;;;;;;;6.33;3.00;;;;;14.10;63.25;101450.78;5055753;28;45623;-70
2022/01/02 20:41:14;;;;;;;;;8.33;2.00;;;;;14.08;63.29;101443.78;5065248;27;45614;-69
2022/01/02 20:43:40;;;;;;;;;5.00;2.00;;;;;14.12;62.95;101448.16;5069302;27;45531;-69
2022/01/02 20:46:06;;;;;;;;;1.00;0.00;;;;;14.14;62.69;101451.66;5061797;27;45706;-71
2022/01/02 20:48:31;;;;;;;;;4.33;1.33;;;;;14.13;63.35;101444.63;5075697;27;45385;-70
2022/01/02 20:50:59;;;;;;;;;5.00;2.00;;;;;14.13;62.95;101444.63;5055576;28;45674;-70
2022/01/02 20:53:27;;;;;;;;;6.00;4.33;;;;;14.13;62.70;101444.63;5071129;28;45557;-71
2022/01/02 20:55:53;;;;;;;;;10.33;3.00;;;;;14.08;62.96;101433.25;5056587;27;45689;-69
2022/01/02 20:58:19;;;;;;;;;5.00;2.00;;;;;14.08;62.92;101436.75;5075254;28;45738;-71
2022/01/02 21:00:46;;;;;;;;;5.00;3.00;;;;;14.06;62.78;101432.34;5077659;28;45389;-68
2022/01/02 21:03:12;;;;;;;;;5.33;2.00;;;;;13.99;62.36;101429.72;5067059;28;45312;-70
2022/01/02 21:05:39;;;;;;;;;6.67;3.00;;;;;14.04;62.60;101442.88;5075308;27;46139;-70
2022/01/02 21:08:05;;;;;;;;;8.33;3.33;;;;;13.73;62.31;101392.00;5074769;27;45524;-68
2022/01/02 21:10:31;;;;;;;;;3.33;3.00;;;;;14.03;62.32;101448.16;5090889;27;45424;-71
2022/01/02 21:12:57;;;;;;;;;5.33;2.00;;;;;14.03;62.81;101461.34;5078996;27;45672;-71
2022/01/02 21:15:23;;;;;;;;;1.67;1.67;;;;;14.02;62.77;101459.56;5079855;27;45829;-70
2022/01/02 21:17:50;;;;;;;;;2.00;1.00;;;;;13.94;62.88;101439.38;5077947;27;45426;-69
2022/01/02 21:20:19;;;;;;;;;5.33;2.33;;;;;14.00;62.53;101455.19;5075588;27;45386;-71
2022/01/02 21:22:47;;;;;;;;;4.33;2.33;;;;;13.94;62.78;101435.88;5075785;27;46153;-70
2022/01/02 21:25:16;;;;;;;;;5.00;2.00;;;;;13.89;62.59;101430.63;5074922;27;45416;-71
2022/01/02 21:27:45;;;;;;;;;4.00;2.33;;;;;13.99;62.75;101449.91;5075108;27;45779;-71
2022/01/02 21:30:16;;;;;;;;;3.00;1.00;;;;;13.99;62.33;101457.81;5108186;27;45352;-70
2022/01/02 21:32:43;;;;;;;;;2.00;2.00;;;;;13.99;62.30;101460.44;5075218;27;45287;-70
2022/01/02 21:35:26;;;;;;;;;6.00;2.67;;;;;13.93;62.47;101449.94;5075423;28;45670;-70
2022/01/02 21:37:58;;;;;;;;;3.00;1.33;;;;;13.96;62.33;101460.47;5073483;28;45374;-71
2022/01/02 21:40:26;;;;;;;;;2.00;1.33;;;;;13.99;61.85;101452.56;5079282;28;45332;-71
2022/01/02 21:42:54;;;;;;;;;1.00;1.00;;;;;13.94;62.17;101444.66;5079448;27;45400;-71
2022/01/02 21:45:21;;;;;;;;;2.67;2.67;;;;;13.94;61.82;101457.81;5077597;27;45516;-69
2022/01/02 21:47:49;;;;;;;;;3.00;1.00;;;;;13.93;61.89;101457.84;5074584;27;45516;-69
2022/01/02 21:50:21;;;;;;;;;4.33;2.00;;;;;13.70;62.09;101420.97;5078891;27;45563;-72
2022/01/02 21:52:59;;;;;;;;;7.67;3.67;;;;;13.78;62.34;101432.38;5082449;27;45381;-71
2022/01/02 21:55:34;;;;;;;;;10.33;3.00;;;;;13.75;62.15;101420.09;5094465;27;45483;-70
2022/01/02 21:58:01;;;;;;;;;5.67;2.00;;;;;13.88;62.20;101447.31;5076218;27;45496;-70
2022/01/02 22:00:29;;;;;;;;;2.00;0.67;;;;;13.88;62.38;101449.03;5075061;27;45473;-68
2022/01/02 22:03:17;;;;;;;;;4.67;2.00;;;;;13.80;62.19;101451.69;5087501;27;45330;-70
2022/01/02 22:05:50;;;;;;;;;4.00;2.00;;;;;13.46;62.37;101393.75;5073035;27;45404;-70
2022/01/02 22:08:20;;;;;;;;;5.00;2.33;;;;;13.84;62.43;101466.59;5068580;28;45381;-70
2022/01/02 22:10:47;;;;;;;;;4.33;1.00;;;;;13.82;62.25;101468.34;5075218;28;45583;-71
2022/01/02 22:13:17;;;;;;;;;1.67;1.00;;;;;13.83;62.30;101474.50;5075850;28;45535;-70
2022/01/02 22:15:47;;;;;;;;;3.33;2.00;;;;;13.82;62.46;101468.34;5076432;27;45440;-69
2022/01/02 22:18:17;;;;;;;;;2.67;1.00;;;;;13.77;62.13;101449.06;5070215;28;45634;-69
2022/01/02 22:20:47;;;;;;;;;3.67;2.33;;;;;13.73;62.10;101437.63;5075209;28;45633;-69
2022/01/02 22:23:17;;;;;;;;;1.00;1.00;;;;;13.75;62.54;101446.41;5073115;28;45654;-71
2022/01/02 22:26:15;;;;;;;;;3.00;1.00;;;;;13.73;61.82;101450.78;5072924;28;46793;-70
2022/01/02 22:28:45;;;;;;;;;3.33;2.00;;;;;13.61;62.45;101439.38;5062818;28;45475;-71
2022/01/02 22:31:18;;;;;;;;;2.67;1.67;;;;;13.54;62.41;101447.25;5059553;28;45461;-70
2022/01/02 22:33:53;;;;;;;;;2.00;1.00;;;;;13.75;62.38;101482.41;5072664;28;45443;-72
2022/01/02 22:36:20;;;;;;;;;5.33;2.00;;;;;13.75;62.62;101480.63;5068740;28;46882;-70
2022/01/02 22:38:47;;;;;;;;;3.67;2.00;;;;;13.52;62.22;101443.75;5066837;27;45493;-71
2022/01/02 22:41:14;;;;;;;;;6.67;1.33;;;;;13.79;62.35;101487.66;5073396;28;45433;-70
2022/01/02 22:43:41;;;;;;;;;8.33;1.67;;;;;13.74;62.26;101481.53;5070394;28;45489;-69
2022/01/02 22:46:14;;;;;;;;;5.00;1.33;;;;;13.76;62.35;101487.69;5064484;27;45712;-68